createdAt,value
2024-01-11T00:01:47.704Z,97608.97
2024-01-11T00:04:15.149Z,97609.69
2024-01-11T00:06:43.947Z,97596.38
2024-01-11T00:09:13.171Z,97606.84
2024-01-11T00:11:40.613Z,97598.13
2024-01-11T00:14:08.306Z,97588.13
2024-01-11T00:16:35.811Z,97563.19
2024-01-11T00:19:03.315Z,97561.38
2024-01-11T00:21:30.663Z,97556.06
2024-01-11T00:23:58.085Z,97537.22
2024-01-11T00:26:26.774Z,97533.88
2024-01-11T00:28:54.117Z,97529.69
2024-01-11T00:31:21.380Z,97507.03
2024-01-11T00:33:48.833Z,97496.72
2024-01-11T00:36:19.982Z,97490.75
2024-01-11T00:38:47.249Z,97481.03
2024-01-11T00:41:14.743Z,97475.19
2024-01-11T00:43:43.571Z,97450.22
2024-01-11T00:46:10.918Z,97460.00
2024-01-11T00:48:38.211Z,97448.66
2024-01-11T00:51:05.792Z,97446.50
2024-01-11T00:53:34.012Z,97435.75
2024-01-11T00:56:01.509Z,97424.09
2024-01-11T00:58:29.117Z,97419.13
2024-01-11T01:00:57.815Z,97389.78
2024-01-11T01:03:25.174Z,97405.09
2024-01-11T01:05:52.413Z,97394.25
2024-01-11T01:08:19.978Z,97376.63
2024-01-11T01:10:47.289Z,97366.69
2024-01-11T01:13:14.563Z,97387.69
2024-01-11T01:15:41.944Z,97364.16
2024-01-11T01:18:10.781Z,97366.97
2024-01-11T01:20:38.252Z,97358.91
2024-01-11T01:23:05.730Z,97347.84
2024-01-11T01:25:33.878Z,97337.22
2024-01-11T01:28:02.104Z,97330.25
2024-01-11T01:30:29.411Z,97316.38
2024-01-11T01:32:57.385Z,97313.25
2024-01-11T01:35:26.403Z,97294.63
2024-01-11T01:37:53.945Z,97299.59
2024-01-11T01:40:21.150Z,97285.16
2024-01-11T01:42:49.729Z,97281.66
2024-01-11T01:45:18.180Z,97273.53
2024-01-11T01:47:45.959Z,97253.28
2024-01-11T01:50:14.029Z,97252.19
2024-01-11T01:52:44.969Z,97246.28
2024-01-11T01:55:13.953Z,97238.25
2024-01-11T01:57:42.230Z,97240.66
2024-01-11T02:00:12.796Z,97234.56
2024-01-11T02:02:43.286Z,97218.56
2024-01-11T02:05:11.742Z,97209.78
2024-01-11T02:07:40.081Z,97213.72
2024-01-11T02:10:09.913Z,97204.00
2024-01-11T02:12:40.763Z,97176.25
2024-01-11T02:15:08.965Z,97189.88
2024-01-11T02:17:41.351Z,97180.47
2024-01-11T02:20:10.002Z,97170.94
2024-01-11T02:22:41.717Z,97170.72
2024-01-11T02:25:10.394Z,97164.72
2024-01-11T02:27:48.128Z,97166.66
2024-01-11T02:30:15.948Z,97152.25
2024-01-11T02:32:44.962Z,97143.66
2024-01-11T02:35:12.603Z,97139.13
2024-01-11T02:37:40.803Z,97130.59
2024-01-11T02:40:11.520Z,97124.63
2024-01-11T02:42:39.117Z,97123.34
2024-01-11T02:45:07.460Z,97114.59
2024-01-11T02:47:34.736Z,97099.41
2024-01-11T02:50:02.210Z,97098.03
2024-01-11T02:52:29.792Z,97090.19
2024-01-11T02:54:57.009Z,97083.94
2024-01-11T02:57:25.928Z,97086.88
2024-01-11T02:59:53.671Z,97074.84
2024-01-11T03:02:21.034Z,97077.88
2024-01-11T03:04:48.521Z,97067.44
2024-01-11T03:07:16.032Z,97058.56
2024-01-11T03:09:43.592Z,97047.31
2024-01-11T03:12:10.930Z,97054.31
2024-01-11T03:14:39.586Z,97041.47
2024-01-11T03:17:06.868Z,97039.28
2024-01-11T03:19:34.366Z,97030.75
2024-01-11T03:22:05.915Z,97038.53
2024-01-11T03:24:33.272Z,97021.47
2024-01-11T03:27:00.622Z,97010.34
2024-01-11T03:29:27.902Z,97013.25
2024-01-11T03:31:56.621Z,97010.94
2024-01-11T03:34:24.462Z,97010.19
2024-01-11T03:36:51.802Z,96998.13
2024-01-11T03:39:19.704Z,96999.75
2024-01-11T03:41:47.108Z,97002.38
2024-01-11T03:44:14.816Z,96989.28
2024-01-11T03:46:42.191Z,96978.34
2024-01-11T03:49:10.892Z,96978.00
2024-01-11T03:51:38.564Z,96976.94
2024-01-11T03:54:06.065Z,96961.56
2024-01-11T03:56:33.645Z,96964.84
2024-01-11T03:59:01.053Z,96954.59
2024-01-11T04:01:28.424Z,96952.50
2024-01-11T04:03:55.773Z,96949.72
2024-01-11T04:06:25.866Z,96947.19
2024-01-11T04:08:53.304Z,96953.34
2024-01-11T04:11:20.711Z,96943.97
2024-01-11T04:13:48.433Z,96930.34
2024-01-11T04:16:15.963Z,96929.38
2024-01-11T04:18:43.370Z,96919.97
2024-01-11T04:21:22.482Z,96912.41
2024-01-11T04:23:51.925Z,96920.94
2024-01-11T04:26:19.748Z,96910.50
2024-01-11T04:28:47.705Z,96926.50
2024-01-11T04:31:15.387Z,96923.97
2024-01-11T04:33:43.249Z,96917.09
2024-01-11T04:36:11.154Z,96920.53
2024-01-11T04:38:39.036Z,96916.66
2024-01-11T04:41:10.813Z,96919.84
2024-01-11T04:43:39.747Z,96914.69
2024-01-11T04:46:14.742Z,96904.78
2024-01-11T04:48:42.532Z,96889.19
2024-01-11T04:51:10.138Z,96898.13
2024-01-11T04:53:39.203Z,96898.78
2024-01-11T04:56:07.935Z,96884.53
2024-01-11T04:58:39.143Z,96898.50
2024-01-11T05:01:07.022Z,96899.34
2024-01-11T05:03:34.770Z,96896.41
2024-01-11T05:06:02.754Z,96891.28
2024-01-11T05:08:30.780Z,96887.53
2024-01-11T05:10:58.162Z,96869.97
2024-01-11T05:13:25.457Z,96872.41
2024-01-11T05:15:54.322Z,96855.81
2024-01-11T05:18:21.656Z,96865.41
2024-01-11T05:20:48.950Z,96866.34
2024-01-11T05:23:16.486Z,96860.38
2024-01-11T05:25:43.790Z,96845.03
2024-01-11T05:28:11.825Z,96858.72
2024-01-11T05:30:39.282Z,96855.91
2024-01-11T05:33:08.008Z,96839.84
2024-01-11T05:35:35.647Z,96845.44
2024-01-11T05:38:03.267Z,96844.06
2024-01-11T05:40:30.531Z,96835.47
2024-01-11T05:42:58.202Z,96831.38
2024-01-11T05:45:31.907Z,96857.13
2024-01-11T05:48:09.194Z,96850.22
2024-01-11T05:50:37.116Z,96833.00
2024-01-11T05:53:05.107Z,96834.56
2024-01-11T05:55:32.314Z,96826.13
2024-01-11T05:57:59.518Z,96827.66
2024-01-11T06:00:27.256Z,96832.06
2024-01-11T06:02:54.720Z,96821.09
2024-01-11T06:05:23.756Z,96823.28
2024-01-11T06:07:51.032Z,96830.69
2024-01-11T06:10:18.834Z,96818.94
2024-01-11T06:12:47.075Z,96790.22
2024-01-11T06:15:14.863Z,96821.78
2024-01-11T06:17:42.420Z,96816.44
2024-01-11T06:20:11.952Z,96825.56
2024-01-11T06:22:42.877Z,96823.06
2024-01-11T06:25:11.613Z,96812.69
2024-01-11T06:27:38.884Z,96799.22
2024-01-11T06:30:08.228Z,96796.13
2024-01-11T06:32:35.914Z,96795.31
2024-01-11T06:35:04.297Z,96803.47
2024-01-11T06:37:32.081Z,96793.59
2024-01-11T06:40:01.086Z,96797.84
2024-01-11T06:42:28.424Z,96800.63
2024-01-11T06:44:55.935Z,96779.59
2024-01-11T06:47:23.511Z,96777.75
2024-01-11T06:49:50.933Z,96781.66
2024-01-11T06:52:18.187Z,96786.41
2024-01-11T06:54:45.821Z,96784.50
2024-01-11T06:57:14.385Z,96769.44
2024-01-11T06:59:42.082Z,96781.41
2024-01-11T07:02:09.415Z,96782.66
2024-01-11T07:04:36.677Z,96777.31
2024-01-11T07:07:05.990Z,96773.28
2024-01-11T07:09:33.322Z,96771.81
2024-01-11T07:12:00.687Z,96780.81
2024-01-11T07:14:31.210Z,96785.22
2024-01-11T07:16:58.573Z,96771.72
2024-01-11T07:19:26.096Z,96768.72
2024-01-11T07:21:53.467Z,96766.69
2024-01-11T07:24:20.896Z,96768.91
2024-01-11T07:26:48.665Z,96768.59
2024-01-11T07:29:15.955Z,96759.19
2024-01-11T07:31:44.603Z,96764.84
2024-01-11T07:34:12.389Z,96732.47
2024-01-11T07:36:39.703Z,96739.75
2024-01-11T07:39:07.234Z,96754.63
2024-01-11T07:41:34.559Z,96734.38
2024-01-11T07:44:02.151Z,96722.75
2024-01-11T07:46:36.335Z,96729.03
2024-01-11T07:49:11.688Z,96735.81
2024-01-11T07:51:40.216Z,96735.97
2024-01-11T07:54:08.227Z,96729.69
2024-01-11T07:56:36.499Z,96738.47
2024-01-11T07:59:04.016Z,96709.44
2024-01-11T08:01:31.608Z,96712.41
2024-01-11T08:03:59.262Z,96704.09
2024-01-11T08:06:28.059Z,96710.84
2024-01-11T08:08:55.604Z,96710.53
2024-01-11T08:11:26.935Z,96707.25
2024-01-11T08:13:56.063Z,96707.22
2024-01-11T08:16:23.386Z,96705.84
2024-01-11T08:18:51.483Z,96700.81
2024-01-11T08:21:18.692Z,96709.28
2024-01-11T08:23:50.240Z,96694.34
2024-01-11T08:26:20.447Z,96702.03
2024-01-11T08:28:47.963Z,96686.31
2024-01-11T08:31:15.237Z,96689.31
2024-01-11T08:33:42.632Z,96664.16
2024-01-11T08:36:11.383Z,96690.91
2024-01-11T08:38:38.716Z,96684.28
2024-01-11T08:41:07.978Z,96691.50
2024-01-11T08:43:35.362Z,96691.66
2024-01-11T08:46:03.343Z,96670.59
2024-01-11T08:48:30.945Z,96661.50
2024-01-11T08:50:58.757Z,96673.13
2024-01-11T08:53:26.175Z,96669.69
2024-01-11T08:55:54.471Z,96675.03
2024-01-11T08:58:23.046Z,96661.16
2024-01-11T09:00:50.664Z,96664.66
2024-01-11T09:03:18.747Z,96661.97
2024-01-11T09:05:46.481Z,96653.00
2024-01-11T09:08:14.144Z,96646.56
2024-01-11T09:10:43.022Z,96652.22
2024-01-11T09:13:12.394Z,96627.09
2024-01-11T09:15:41.862Z,96634.16
2024-01-11T09:18:09.552Z,96650.97
2024-01-11T09:20:37.213Z,96660.84
2024-01-11T09:23:05.216Z,96679.69
2024-01-11T09:25:32.645Z,96721.16
2024-01-11T09:28:00.433Z,96735.00
2024-01-11T09:30:28.183Z,96738.28
2024-01-11T09:32:57.157Z,96738.69
2024-01-11T09:35:24.853Z,96759.22
2024-01-11T09:37:52.174Z,96747.97
2024-01-11T09:40:20.233Z,96746.75
2024-01-11T09:42:47.759Z,96744.69
2024-01-11T09:45:19.546Z,96748.28
2024-01-11T09:47:48.329Z,96750.31
2024-01-11T09:50:21.397Z,96743.06
2024-01-11T09:52:50.621Z,96745.28
2024-01-11T09:55:18.633Z,96761.78
2024-01-11T09:57:47.793Z,96760.63
2024-01-11T10:00:19.875Z,96757.78
2024-01-11T10:02:48.060Z,96765.75
2024-01-11T10:05:18.542Z,96771.84
2024-01-11T10:07:47.040Z,96763.69
2024-01-11T10:10:16.918Z,96781.59
2024-01-11T10:12:46.325Z,96775.50
2024-01-11T10:15:15.101Z,96785.91
2024-01-11T10:17:45.840Z,96798.72
2024-01-11T10:20:18.806Z,96801.97
2024-01-11T10:22:48.181Z,96823.88
2024-01-11T10:25:17.007Z,96819.97
2024-01-11T10:27:45.784Z,96816.50
2024-01-11T10:30:21.597Z,96816.66
2024-01-11T10:32:50.278Z,96824.47
2024-01-11T10:35:19.925Z,96848.00
2024-01-11T10:37:51.681Z,96853.41
2024-01-11T10:40:22.284Z,96861.25
2024-01-11T10:42:52.870Z,96852.06
2024-01-11T10:45:21.792Z,96851.56
2024-01-11T10:47:53.367Z,96861.38
2024-01-11T10:50:24.229Z,96858.78
2024-01-11T10:53:04.562Z,96848.81
2024-01-11T10:55:34.755Z,96865.00
2024-01-11T10:58:03.835Z,96874.03
2024-01-11T11:00:32.726Z,96888.94
2024-01-11T11:03:01.761Z,96892.00
2024-01-11T11:05:32.051Z,96906.38
2024-01-11T11:08:02.857Z,96907.13
2024-01-11T11:10:33.090Z,96922.03
2024-01-11T11:13:01.254Z,96934.47
2024-01-11T11:15:29.881Z,96941.22
2024-01-11T11:17:57.916Z,96952.56
2024-01-11T11:20:25.776Z,96957.19
2024-01-11T11:23:06.269Z,96968.53
2024-01-11T11:25:35.599Z,96978.81
2024-01-11T11:28:05.633Z,96981.22
2024-01-11T11:30:33.951Z,97003.06
2024-01-11T11:33:11.143Z,97015.59
2024-01-11T11:35:39.115Z,97017.91
2024-01-11T11:38:08.780Z,97012.88
2024-01-11T11:40:40.382Z,97025.59
2024-01-11T11:43:07.792Z,97043.44
2024-01-11T11:45:35.304Z,97038.09
2024-01-11T11:48:03.508Z,97042.47
2024-01-11T11:50:32.459Z,97055.53
2024-01-11T11:52:59.830Z,97065.22
2024-01-11T11:55:28.660Z,97067.66
2024-01-11T11:57:56.165Z,97074.22
2024-01-11T12:00:24.933Z,97090.38
2024-01-11T12:02:55.228Z,97095.63
2024-01-11T12:05:24.183Z,97106.63
2024-01-11T12:07:53.456Z,97108.94
2024-01-11T12:10:23.803Z,97115.09
2024-01-11T12:12:52.697Z,97120.56
2024-01-11T12:15:20.072Z,97120.22
2024-01-11T12:17:47.513Z,97132.06
2024-01-11T12:20:15.759Z,97127.53
2024-01-11T12:22:43.262Z,97125.50
2024-01-11T12:25:10.640Z,97137.53
2024-01-11T12:27:37.895Z,97137.28
2024-01-11T12:30:10.395Z,97133.88
2024-01-11T12:32:38.132Z,97148.63
2024-01-11T12:35:06.536Z,97149.53
2024-01-11T12:37:33.990Z,97151.69
2024-01-11T12:40:01.198Z,97159.50
2024-01-11T12:42:30.188Z,97161.72
2024-01-11T12:44:59.464Z,97173.19
2024-01-11T12:47:29.303Z,97171.94
2024-01-11T12:49:56.741Z,97178.50
2024-01-11T12:52:26.823Z,97187.69
2024-01-11T12:54:54.442Z,97188.44
2024-01-11T12:57:22.261Z,97198.66
2024-01-11T12:59:50.008Z,97202.81
2024-01-11T13:02:19.558Z,97214.25
2024-01-11T13:04:52.026Z,97212.63
2024-01-11T13:07:19.398Z,97226.47
2024-01-11T13:09:46.660Z,97231.72
2024-01-11T13:12:13.970Z,97240.72
2024-01-11T13:14:41.850Z,97250.03
2024-01-11T13:17:09.983Z,97248.88
2024-01-11T13:19:37.326Z,97267.00
2024-01-11T13:22:06.040Z,97276.44
2024-01-11T13:24:33.268Z,97271.19
2024-01-11T13:27:00.523Z,97272.38
2024-01-11T13:29:28.373Z,97267.00
2024-01-11T13:31:56.510Z,97269.38
2024-01-11T13:34:24.670Z,97255.66
2024-01-11T13:36:52.044Z,97282.50
2024-01-11T13:39:21.644Z,97286.88
2024-01-11T13:41:48.900Z,97291.44
2024-01-11T13:44:16.269Z,97301.56
2024-01-11T13:46:45.052Z,97306.53
2024-01-11T13:49:13.009Z,97295.50
2024-01-11T13:51:49.821Z,97299.41
2024-01-11T13:54:23.448Z,97297.69
2024-01-11T13:56:52.915Z,97304.47
2024-01-11T13:59:20.286Z,97297.69
2024-01-11T14:01:48.119Z,97296.28
2024-01-11T14:04:15.332Z,97303.75
2024-01-11T14:06:42.739Z,97316.25
2024-01-11T14:09:11.071Z,97309.69
2024-01-11T14:11:39.723Z,97314.66
2024-01-11T14:14:07.925Z,97322.03
2024-01-11T14:16:35.256Z,97326.47
2024-01-11T14:19:02.736Z,97321.59
2024-01-11T14:21:30.203Z,97339.91
2024-01-11T14:23:57.529Z,97335.19
2024-01-11T14:26:24.946Z,97339.56
2024-01-11T14:28:55.453Z,97342.63
2024-01-11T14:31:25.697Z,97341.06
2024-01-11T14:33:53.550Z,97345.91
2024-01-11T14:36:20.979Z,97340.88
2024-01-11T14:38:48.545Z,97351.97
2024-01-11T14:41:16.327Z,97344.00
2024-01-11T14:43:43.823Z,97354.22
2024-01-11T14:46:12.559Z,97345.38
2024-01-11T14:48:40.290Z,97352.09
2024-01-11T14:51:08.947Z,97368.53
2024-01-11T14:53:36.359Z,97359.66
2024-01-11T14:56:03.859Z,97346.91
2024-01-11T14:58:31.154Z,97378.72
2024-01-11T15:00:59.167Z,97378.72
2024-01-11T15:03:27.830Z,97371.97
2024-01-11T15:05:55.251Z,97388.03
2024-01-11T15:08:22.946Z,97379.81
2024-01-11T15:10:50.833Z,97385.06
2024-01-11T15:13:18.558Z,97384.41
2024-01-11T15:15:46.078Z,97383.81
2024-01-11T15:18:13.811Z,97381.25
2024-01-11T15:20:43.193Z,97399.50
2024-01-11T15:23:10.534Z,97389.56
2024-01-11T15:25:38.135Z,97396.50
2024-01-11T15:28:05.529Z,97394.09
2024-01-11T15:30:33.504Z,97397.66
2024-01-11T15:33:02.372Z,97404.22
2024-01-11T15:35:32.221Z,97409.06
2024-01-11T15:38:00.926Z,97411.94
2024-01-11T15:40:28.096Z,97403.09
2024-01-11T15:43:07.950Z,97425.78
2024-01-11T15:45:37.004Z,97429.84
2024-01-11T15:48:05.889Z,97412.47
2024-01-11T15:50:33.278Z,97426.38
2024-01-11T15:53:01.961Z,97419.91
2024-01-11T15:55:29.539Z,97434.47
2024-01-11T15:58:02.700Z,97427.63
2024-01-11T16:00:31.915Z,97436.06
2024-01-11T16:02:59.378Z,97440.03
2024-01-11T16:05:26.938Z,97442.63
2024-01-11T16:07:54.254Z,97438.88
2024-01-11T16:10:23.691Z,97448.81
2024-01-11T16:12:50.903Z,97453.63
2024-01-11T16:15:18.257Z,97453.63
2024-01-11T16:17:45.849Z,97466.38
2024-01-11T16:20:13.511Z,97474.59
2024-01-11T16:22:40.924Z,97466.69
2024-01-11T16:25:09.142Z,97477.44
2024-01-11T16:27:38.722Z,97481.78
2024-01-11T16:30:07.819Z,97473.34
2024-01-11T16:32:35.485Z,97475.13
2024-01-11T16:35:03.048Z,97471.19
2024-01-11T16:37:31.601Z,97458.91
2024-01-11T16:39:58.899Z,97479.97
2024-01-11T16:42:27.877Z,97482.06
2024-01-11T16:44:56.884Z,97496.22
2024-01-11T16:47:24.454Z,97487.91
2024-01-11T16:49:51.832Z,97501.03
2024-01-11T16:52:19.265Z,97494.00
2024-01-11T16:54:47.512Z,97504.72
2024-01-11T16:57:14.949Z,97496.41
2024-01-11T16:59:42.356Z,97511.28
2024-01-11T17:02:11.002Z,97507.75
2024-01-11T17:04:38.350Z,97505.81
2024-01-11T17:07:05.656Z,97510.84
2024-01-11T17:09:32.944Z,97511.50
2024-01-11T17:12:00.541Z,97513.88
2024-01-11T17:14:27.987Z,97524.06
2024-01-11T17:16:55.192Z,97522.06
2024-01-11T17:19:23.983Z,97517.19
2024-01-11T17:21:51.191Z,97518.88
2024-01-11T17:24:18.632Z,97524.72
2024-01-11T17:26:45.869Z,97515.44
2024-01-11T17:29:13.099Z,97535.59
2024-01-11T17:31:45.688Z,97534.97
2024-01-11T17:34:13.174Z,97550.66
2024-01-11T17:36:42.040Z,97542.34
2024-01-11T17:39:11.794Z,97558.34
2024-01-11T17:41:41.321Z,97550.16
2024-01-11T17:44:08.933Z,97569.31
2024-01-11T17:46:36.427Z,97576.63
2024-01-11T17:49:04.556Z,97571.69
2024-01-11T17:51:33.394Z,97570.19
2024-01-11T17:54:02.367Z,97579.44
2024-01-11T17:56:30.110Z,97578.16
2024-01-11T17:58:57.747Z,97577.84
2024-01-11T18:01:26.222Z,97581.91
2024-01-11T18:03:53.863Z,97591.94
2024-01-11T18:06:21.317Z,97594.47
2024-01-11T18:08:49.901Z,97600.22
2024-01-11T18:11:18.772Z,97595.53
2024-01-11T18:13:46.128Z,97604.63
2024-01-11T18:16:14.098Z,97603.81
2024-01-11T18:18:43.848Z,97620.22
2024-01-11T18:21:11.395Z,97612.00
2024-01-11T18:23:38.834Z,97626.94
2024-01-11T18:26:07.289Z,97618.94
2024-01-11T18:28:36.686Z,97633.16
2024-01-11T18:31:04.680Z,97660.72
2024-01-11T18:33:32.073Z,97662.56
2024-01-11T18:35:59.428Z,97678.31
2024-01-11T18:38:26.816Z,97687.47
2024-01-11T18:40:54.022Z,97677.72
2024-01-11T18:43:21.782Z,97695.94
2024-01-11T18:45:52.362Z,97695.25
2024-01-11T18:48:20.438Z,97710.97
2024-01-11T18:50:48.018Z,97711.63
2024-01-11T18:53:15.568Z,97715.69
2024-01-11T18:55:42.840Z,97721.28
2024-01-11T18:58:11.055Z,97719.69
2024-01-11T19:00:41.840Z,97724.66
2024-01-11T19:03:12.978Z,97731.38
2024-01-11T19:05:41.419Z,97749.16
2024-01-11T19:08:08.840Z,97766.03
2024-01-11T19:10:36.109Z,97753.22
2024-01-11T19:13:03.648Z,97775.81
2024-01-11T19:15:31.299Z,97762.41
2024-01-11T19:17:58.769Z,97769.75
2024-01-11T19:20:27.614Z,97773.91
2024-01-11T19:22:55.065Z,97777.16
2024-01-11T19:25:22.672Z,97784.59
2024-01-11T19:27:51.417Z,97777.38
2024-01-11T19:30:20.079Z,97779.06
2024-01-11T19:32:47.632Z,97778.41
2024-01-11T19:35:15.239Z,97792.38
2024-01-11T19:37:44.293Z,97784.09
2024-01-11T19:40:12.191Z,97799.66
2024-01-11T19:42:39.594Z,97793.84
2024-01-11T19:45:07.843Z,97797.13
2024-01-11T19:47:38.481Z,97793.03
2024-01-11T19:50:07.137Z,97808.69
2024-01-11T19:52:34.465Z,97804.91
2024-01-11T19:55:03.404Z,97813.28
2024-01-11T19:57:32.626Z,97807.06
2024-01-11T20:00:00.063Z,97800.50
2024-01-11T20:02:27.562Z,97818.78
2024-01-11T20:04:56.632Z,97829.63
2024-01-11T20:07:25.301Z,97833.75
2024-01-11T20:09:52.630Z,97825.69
2024-01-11T20:12:21.217Z,97823.19
2024-01-11T20:14:48.619Z,97830.88
2024-01-11T20:17:16.613Z,97826.81
2024-01-11T20:19:44.026Z,97830.97
2024-01-11T20:22:11.319Z,97833.53
2024-01-11T20:24:38.784Z,97837.50
2024-01-11T20:27:07.035Z,97839.91
2024-01-11T20:29:36.077Z,97843.81
2024-01-11T20:32:03.781Z,97856.50
2024-01-11T20:34:31.516Z,97842.44
2024-01-11T20:36:59.599Z,97840.31
2024-01-11T20:39:27.230Z,97851.94
2024-01-11T20:41:57.089Z,97852.91
2024-01-11T20:44:25.449Z,97851.13
2024-01-11T20:46:55.595Z,97855.38
2024-01-11T20:49:22.977Z,97846.34
2024-01-11T20:51:50.213Z,97854.56
2024-01-11T20:54:17.743Z,97852.91
2024-01-11T20:56:45.550Z,97851.28
2024-01-11T20:59:13.316Z,97858.72
2024-01-11T21:01:40.866Z,97869.47
2024-01-11T21:04:09.839Z,97857.59
2024-01-11T21:06:37.300Z,97869.03
2024-01-11T21:09:06.683Z,97860.66
2024-01-11T21:11:34.012Z,97873.13
2024-01-11T21:14:02.262Z,97863.22
2024-01-11T21:16:29.508Z,97875.59
2024-01-11T21:18:57.288Z,97883.13
2024-01-11T21:21:27.752Z,97875.50
2024-01-11T21:24:00.724Z,97865.63
2024-01-11T21:26:28.700Z,97885.41
2024-01-11T21:28:56.928Z,97882.00
2024-01-11T21:31:25.338Z,97891.47
2024-01-11T21:33:53.762Z,97894.03
2024-01-11T21:36:25.474Z,97904.00
2024-01-11T21:38:56.484Z,97906.59
2024-01-11T21:41:25.742Z,97914.69
2024-01-11T21:43:53.704Z,97921.66
2024-01-11T21:46:20.907Z,97924.97
2024-01-11T21:48:48.579Z,97925.84
2024-01-11T21:51:15.947Z,97923.44
2024-01-11T21:53:43.286Z,97935.69
2024-01-11T21:56:13.559Z,97929.81
2024-01-11T21:58:41.249Z,97952.09
2024-01-11T22:01:08.731Z,97942.38
2024-01-11T22:03:37.168Z,97948.50
2024-01-11T22:06:05.203Z,97960.47
2024-01-11T22:08:32.696Z,97964.31
2024-01-11T22:11:00.070Z,97961.41
2024-01-11T22:13:28.774Z,97961.09
2024-01-11T22:15:55.950Z,97956.75
2024-01-11T22:18:23.856Z,97969.97
2024-01-11T22:20:51.594Z,97979.34
2024-01-11T22:23:19.319Z,97990.53
2024-01-11T22:25:46.897Z,98002.19
2024-01-11T22:28:14.230Z,98006.78
2024-01-11T22:30:43.032Z,98008.03
2024-01-11T22:33:13.640Z,98010.88
2024-01-11T22:35:43.809Z,98011.34
2024-01-11T22:38:11.106Z,98014.25
2024-01-11T22:40:39.143Z,98025.25
2024-01-11T22:43:07.565Z,98027.28
2024-01-11T22:45:35.769Z,98028.38
2024-01-11T22:48:05.252Z,98044.84
2024-01-11T22:50:32.682Z,98034.63
2024-01-11T22:53:03.966Z,98047.16
2024-01-11T22:55:33.646Z,98055.47
2024-01-11T22:58:00.921Z,98071.13
2024-01-11T23:00:28.512Z,98070.41
2024-01-11T23:02:56.260Z,98060.63
2024-01-11T23:05:25.281Z,98074.66
2024-01-11T23:07:53.016Z,98082.91
2024-01-11T23:10:20.399Z,98070.75
2024-01-11T23:12:47.776Z,98085.38
2024-01-11T23:15:15.609Z,98092.88
2024-01-11T23:17:43.500Z,98093.66
2024-01-11T23:20:12.268Z,98078.94
2024-01-11T23:22:41.259Z,98085.56
2024-01-11T23:25:09.428Z,98093.03
2024-01-11T23:27:37.203Z,98095.66
2024-01-11T23:30:05.377Z,98116.34
2024-01-11T23:32:33.169Z,98118.16
2024-01-11T23:35:00.730Z,98128.97
2024-01-11T23:37:28.151Z,98123.28
2024-01-11T23:39:56.937Z,98120.09
2024-01-11T23:42:24.421Z,98154.50
2024-01-11T23:44:52.624Z,98128.16
2024-01-11T23:47:20.364Z,98137.38
2024-01-11T23:49:47.742Z,98137.59
2024-01-11T23:52:15.254Z,98131.16
2024-01-11T23:54:42.641Z,98140.19
2024-01-11T23:57:11.806Z,98149.34
2024-01-11T23:59:39.253Z,98152.00
